createdAt,value
2017-10-10T00:00:54.328Z,1008.23
2017-10-10T00:02:06.574Z,1008.21
2017-10-10T00:03:18.820Z,1008.17
2017-10-10T00:04:30.436Z,1008.23
2017-10-10T00:05:43.014Z,1008.18
2017-10-10T00:06:55.881Z,1008.23
2017-10-10T00:08:08.452Z,1008.2
2017-10-10T00:09:21.021Z,1008.21
2017-10-10T00:10:33.260Z,1008.17
2017-10-10T00:11:45.838Z,1008.16
2017-10-10T00:12:57.751Z,1008.17
2017-10-10T00:14:10.308Z,1008.13
2017-10-10T00:15:22.876Z,1008.15
2017-10-10T00:16:34.797Z,1008.15
2017-10-10T00:17:47.368Z,1008.14
2017-10-10T00:18:58.967Z,1008.14
2017-10-10T00:20:10.259Z,1008.09
2017-10-10T00:21:22.189Z,1008.11
2017-10-10T00:22:34.749Z,1008.09
2017-10-10T00:23:47.319Z,1008.11
2017-10-10T00:24:59.245Z,1008.07
2017-10-10T00:26:11.491Z,1008.07
2017-10-10T00:27:23.734Z,1008.09
2017-10-10T00:28:36.303Z,1008.09
2017-10-10T00:29:48.873Z,1008.08
2017-10-10T00:31:01.436Z,1008.06
2017-10-10T00:32:13.671Z,1008.06
2017-10-10T00:33:25.910Z,1008.03
2017-10-10T00:34:37.831Z,1008.02
2017-10-10T00:35:50.076Z,1008.02
2017-10-10T00:37:02.649Z,1008.06
2017-10-10T00:38:14.269Z,1007.97
2017-10-10T00:39:27.088Z,1008.02
2017-10-10T00:40:39.661Z,1007.99
2017-10-10T00:41:52.229Z,1007.99
2017-10-10T00:43:04.476Z,1007.96
2017-10-10T00:44:17.050Z,1007.97
2017-10-10T00:45:29.291Z,1007.95
2017-10-10T00:46:41.863Z,1007.93
2017-10-10T00:47:54.444Z,1007.96
2017-10-10T00:49:06.671Z,1007.92
2017-10-10T00:50:18.605Z,1007.9
2017-10-10T00:51:30.527Z,1007.88
2017-10-10T00:52:43.091Z,1007.92
2017-10-10T00:53:55.642Z,1007.92
2017-10-10T00:55:08.207Z,1007.88
2017-10-10T00:56:20.496Z,1007.86
2017-10-10T00:57:32.750Z,1007.89
2017-10-10T00:58:44.995Z,1007.89
2017-10-10T00:59:57.247Z,1007.85
2017-10-10T01:01:09.185Z,1007.87
2017-10-10T01:02:21.122Z,1007.83
2017-10-10T01:03:33.376Z,1007.85
2017-10-10T01:04:45.940Z,1007.82
2017-10-10T01:05:58.193Z,1007.83
2017-10-10T01:07:09.789Z,1007.8
2017-10-10T01:08:22.360Z,1007.83
2017-10-10T01:09:33.972Z,1007.8
2017-10-10T01:10:46.551Z,1007.74
2017-10-10T01:11:58.798Z,1007.79
2017-10-10T01:13:11.047Z,1007.76
2017-10-10T01:14:23.613Z,1007.73
2017-10-10T01:15:35.559Z,1007.78
2017-10-10T01:16:47.837Z,1007.77
2017-10-10T01:17:59.425Z,1007.72
2017-10-10T01:19:12.001Z,1007.72
2017-10-10T01:20:23.916Z,1007.73
2017-10-10T01:21:36.193Z,1007.72
2017-10-10T01:22:48.782Z,1007.69
2017-10-10T01:24:01.027Z,1007.71
2017-10-10T01:25:13.599Z,1007.65
2017-10-10T01:26:26.169Z,1007.72
2017-10-10T01:27:38.416Z,1007.74
2017-10-10T01:28:50.677Z,1007.72
2017-10-10T01:30:02.607Z,1007.74
2017-10-10T01:31:15.177Z,1007.75
2017-10-10T01:32:27.747Z,1007.75
2017-10-10T01:33:40.319Z,1007.77
2017-10-10T01:34:52.889Z,1007.73
2017-10-10T01:36:05.459Z,1007.72
2017-10-10T01:37:17.705Z,1007.7
2017-10-10T01:38:29.643Z,1007.72
2017-10-10T01:39:41.873Z,1007.7
2017-10-10T01:40:54.117Z,1007.73
2017-10-10T01:42:06.691Z,1007.72
2017-10-10T01:43:18.940Z,1007.7
2017-10-10T01:44:31.780Z,1007.7
2017-10-10T01:45:44.351Z,1007.7
2017-10-10T01:46:56.920Z,1007.66
2017-10-10T01:48:09.491Z,1007.69
2017-10-10T01:49:22.062Z,1007.67
2017-10-10T01:50:34.325Z,1007.71
2017-10-10T01:51:46.877Z,1007.72
2017-10-10T01:52:59.447Z,1007.73
2017-10-10T01:54:11.687Z,1007.76
2017-10-10T01:55:23.933Z,1007.68
2017-10-10T01:56:36.509Z,1007.72
2017-10-10T01:57:49.081Z,1007.71
2017-10-10T01:59:01.652Z,1007.67
2017-10-10T02:00:14.222Z,1007.67
2017-10-10T02:01:26.493Z,1007.68
2017-10-10T02:02:39.114Z,1007.64
2017-10-10T02:03:51.713Z,1007.63
2017-10-10T02:05:03.960Z,1007.62
2017-10-10T02:06:15.877Z,1007.6
2017-10-10T02:07:28.462Z,1007.64
2017-10-10T02:08:41.042Z,1007.61
2017-10-10T02:09:53.312Z,1007.63
2017-10-10T02:11:05.562Z,1007.57
2017-10-10T02:12:17.807Z,1007.56
2017-10-10T02:13:29.751Z,1007.55
2017-10-10T02:14:41.686Z,1007.5
2017-10-10T02:15:54.240Z,1007.52
2017-10-10T02:17:06.504Z,1007.47
2017-10-10T02:18:19.060Z,1007.5
2017-10-10T02:19:31.303Z,1007.48
2017-10-10T02:20:43.548Z,1007.5
2017-10-10T02:21:55.794Z,1007.5
2017-10-10T02:23:08.064Z,1007.44
2017-10-10T02:24:20.327Z,1007.43
2017-10-10T02:25:32.581Z,1007.47
2017-10-10T02:26:45.177Z,1007.48
2017-10-10T02:27:57.422Z,1007.48
2017-10-10T02:29:09.669Z,1007.46
2017-10-10T02:30:22.241Z,1007.46
2017-10-10T02:31:34.483Z,1007.48
2017-10-10T02:32:46.730Z,1007.5
2017-10-10T02:33:58.341Z,1007.46
2017-10-10T02:35:10.947Z,1007.43
2017-10-10T02:36:23.195Z,1007.45
2017-10-10T02:37:35.117Z,1007.44
2017-10-10T02:38:47.682Z,1007.44
2017-10-10T02:40:00.254Z,1007.52
2017-10-10T02:41:12.835Z,1007.48
2017-10-10T02:42:25.089Z,1007.48
2017-10-10T02:43:37.346Z,1007.49
2017-10-10T02:44:49.896Z,1007.47
2017-10-10T02:46:02.456Z,1007.52
2017-10-10T02:47:14.702Z,1007.51
2017-10-10T02:48:26.953Z,1007.5
2017-10-10T02:49:38.562Z,1007.51
2017-10-10T02:50:50.814Z,1007.54
2017-10-10T02:52:03.386Z,1007.54
2017-10-10T02:53:15.657Z,1007.57
2017-10-10T02:54:27.926Z,1007.57
2017-10-10T02:55:40.498Z,1007.54
2017-10-10T02:56:52.449Z,1007.59
2017-10-10T02:58:05.031Z,1007.52
2017-10-10T02:59:16.963Z,1007.57
2017-10-10T03:00:29.205Z,1007.55
2017-10-10T03:01:41.450Z,1007.56
2017-10-10T03:02:54.021Z,1007.54
2017-10-10T03:04:06.593Z,1007.58
2017-10-10T03:05:18.861Z,1007.61
2017-10-10T03:06:31.133Z,1007.63
2017-10-10T03:07:43.704Z,1007.63
2017-10-10T03:08:55.949Z,1007.6
2017-10-10T03:10:08.519Z,1007.66
2017-10-10T03:11:20.443Z,1007.68
2017-10-10T03:12:32.054Z,1007.67
2017-10-10T03:13:44.305Z,1007.67
2017-10-10T03:14:56.878Z,1007.62
2017-10-10T03:16:09.449Z,1007.59
2017-10-10T03:17:21.992Z,1007.57
2017-10-10T03:18:34.564Z,1007.58
2017-10-10T03:19:47.137Z,1007.57
2017-10-10T03:20:59.706Z,1007.54
2017-10-10T03:22:12.293Z,1007.5
2017-10-10T03:23:24.540Z,1007.5
2017-10-10T03:24:36.821Z,1007.51
2017-10-10T03:25:49.364Z,1007.51
2017-10-10T03:27:01.309Z,1007.52
2017-10-10T03:28:13.559Z,1007.46
2017-10-10T03:29:25.804Z,1007.45
2017-10-10T03:30:38.073Z,1007.47
2017-10-10T03:31:50.341Z,1007.51
2017-10-10T03:33:02.586Z,1007.48
2017-10-10T03:34:14.833Z,1007.47
2017-10-10T03:35:27.077Z,1007.46
2017-10-10T03:36:39.016Z,1007.48
2017-10-10T03:37:51.295Z,1007.44
2017-10-10T03:39:03.590Z,1007.43
2017-10-10T03:40:15.861Z,1007.43
2017-10-10T03:41:27.782Z,1007.45
2017-10-10T03:42:40.356Z,1007.48
2017-10-10T03:43:52.290Z,1007.46
2017-10-10T03:45:04.869Z,1007.48
2017-10-10T03:46:17.442Z,1007.48
2017-10-10T03:47:29.684Z,1007.44
2017-10-10T03:48:42.254Z,1007.46
2017-10-10T03:49:54.502Z,1007.49
2017-10-10T03:51:07.072Z,1007.53
2017-10-10T03:52:19.316Z,1007.53
2017-10-10T03:53:31.243Z,1007.5
2017-10-10T03:54:43.809Z,1007.51
2017-10-10T03:55:56.358Z,1007.48
2017-10-10T03:57:08.600Z,1007.51
2017-10-10T03:58:20.847Z,1007.5
2017-10-10T03:59:32.446Z,1007.5
2017-10-10T04:00:44.693Z,1007.49
2017-10-10T04:01:57.259Z,1007.49
2017-10-10T04:03:09.516Z,1007.44
2017-10-10T04:04:21.774Z,1007.47
2017-10-10T04:05:34.345Z,1007.49
2017-10-10T04:06:46.919Z,1007.49
2017-10-10T04:07:59.497Z,1007.51
2017-10-10T04:09:12.086Z,1007.52
2017-10-10T04:10:24.657Z,1007.53
2017-10-10T04:11:37.526Z,1007.49
2017-10-10T04:12:50.094Z,1007.48
2017-10-10T04:14:02.341Z,1007.52
2017-10-10T04:15:14.610Z,1007.53
2017-10-10T04:16:26.534Z,1007.54
2017-10-10T04:17:38.493Z,1007.54
2017-10-10T04:18:50.739Z,1007.5
2017-10-10T04:20:02.684Z,1007.51
2017-10-10T04:21:14.963Z,1007.49
2017-10-10T04:22:27.560Z,1007.52
2017-10-10T04:23:39.805Z,1007.5
2017-10-10T04:24:52.049Z,1007.52
2017-10-10T04:26:04.621Z,1007.54
2017-10-10T04:27:16.870Z,1007.51
2017-10-10T04:28:28.804Z,1007.5
2017-10-10T04:29:41.061Z,1007.52
2017-10-10T04:30:53.653Z,1007.5
2017-10-10T04:32:05.900Z,1007.53
2017-10-10T04:33:18.147Z,1007.51
2017-10-10T04:34:30.392Z,1007.53
2017-10-10T04:35:42.962Z,1007.53
2017-10-10T04:36:54.582Z,1007.52
2017-10-10T04:38:07.152Z,1007.56
2017-10-10T04:39:19.725Z,1007.57
2017-10-10T04:40:32.293Z,1007.57
2017-10-10T04:41:44.540Z,1007.57
2017-10-10T04:42:56.477Z,1007.53
2017-10-10T04:44:09.056Z,1007.53
2017-10-10T04:45:21.626Z,1007.55
2017-10-10T04:46:34.201Z,1007.53
2017-10-10T04:47:46.768Z,1007.53
2017-10-10T04:48:59.015Z,1007.55
2017-10-10T04:50:11.269Z,1007.51
2017-10-10T04:51:23.221Z,1007.54
2017-10-10T04:52:35.480Z,1007.5
2017-10-10T04:53:47.723Z,1007.48
2017-10-10T04:54:59.645Z,1007.48
2017-10-10T04:56:11.887Z,1007.52
2017-10-10T04:57:24.125Z,1007.52
2017-10-10T04:58:36.378Z,1007.53
2017-10-10T04:59:49.252Z,1007.53
2017-10-10T05:01:01.499Z,1007.52
2017-10-10T05:02:14.084Z,1007.54
2017-10-10T05:03:26.028Z,1007.54
2017-10-10T05:04:38.630Z,1007.55
2017-10-10T05:05:51.201Z,1007.59
2017-10-10T05:07:03.467Z,1007.56
2017-10-10T05:08:15.394Z,1007.61
2017-10-10T05:09:27.314Z,1007.58
2017-10-10T05:10:39.884Z,1007.6
2017-10-10T05:11:52.133Z,1007.58
2017-10-10T05:13:04.704Z,1007.59
2017-10-10T05:14:16.951Z,1007.56
2017-10-10T05:15:28.559Z,1007.62
2017-10-10T05:16:41.140Z,1007.61
2017-10-10T05:17:53.735Z,1007.62
2017-10-10T05:19:06.304Z,1007.6
2017-10-10T05:20:17.924Z,1007.6
2017-10-10T05:21:30.470Z,1007.62
2017-10-10T05:22:43.042Z,1007.66
2017-10-10T05:23:55.613Z,1007.65
2017-10-10T05:25:07.862Z,1007.65
2017-10-10T05:26:20.104Z,1007.63
2017-10-10T05:27:32.028Z,1007.6
2017-10-10T05:28:44.594Z,1007.64
2017-10-10T05:29:56.839Z,1007.64
2017-10-10T05:31:09.087Z,1007.61
2017-10-10T05:32:21.348Z,1007.67
2017-10-10T05:33:33.602Z,1007.63
2017-10-10T05:34:46.172Z,1007.66
2017-10-10T05:35:58.743Z,1007.65
2017-10-10T05:37:11.315Z,1007.65
2017-10-10T05:38:23.559Z,1007.67
2017-10-10T05:39:36.139Z,1007.62
2017-10-10T05:40:48.702Z,1007.65
2017-10-10T05:42:00.948Z,1007.68
2017-10-10T05:43:13.192Z,1007.65
2017-10-10T05:44:25.466Z,1007.64
2017-10-10T05:45:37.383Z,1007.67
2017-10-10T05:46:49.953Z,1007.65
2017-10-10T05:48:01.567Z,1007.65
2017-10-10T05:49:14.150Z,1007.63
2017-10-10T05:50:26.072Z,1007.68
2017-10-10T05:51:38.638Z,1007.69
2017-10-10T05:52:51.209Z,1007.71
2017-10-10T05:54:03.453Z,1007.74
2017-10-10T05:55:15.064Z,1007.71
2017-10-10T05:56:27.323Z,1007.75
2017-10-10T05:57:39.568Z,1007.75
2017-10-10T05:58:52.150Z,1007.79
2017-10-10T06:00:04.098Z,1007.74
2017-10-10T06:01:16.351Z,1007.78
2017-10-10T06:02:28.623Z,1007.77
2017-10-10T06:03:40.893Z,1007.75
2017-10-10T06:04:53.463Z,1007.79
2017-10-10T06:06:05.714Z,1007.78
2017-10-10T06:07:17.647Z,1007.76
2017-10-10T06:08:29.574Z,1007.73
2017-10-10T06:09:41.823Z,1007.72
2017-10-10T06:10:54.392Z,1007.72
2017-10-10T06:12:06.330Z,1007.74
2017-10-10T06:13:18.913Z,1007.74
2017-10-10T06:14:31.172Z,1007.76
2017-10-10T06:15:43.750Z,1007.75
2017-10-10T06:16:56.006Z,1007.76
2017-10-10T06:18:08.567Z,1007.8
2017-10-10T06:19:20.839Z,1007.78
2017-10-10T06:20:33.409Z,1007.8
2017-10-10T06:21:45.907Z,1007.81
2017-10-10T06:22:58.474Z,1007.86
2017-10-10T06:24:10.720Z,1007.88
2017-10-10T06:25:22.965Z,1007.88
2017-10-10T06:26:35.212Z,1007.87
2017-10-10T06:27:47.781Z,1007.89
2017-10-10T06:29:00.083Z,1007.89
2017-10-10T06:30:12.670Z,1007.86
2017-10-10T06:31:24.596Z,1007.8
2017-10-10T06:32:36.838Z,1007.85
2017-10-10T06:33:48.765Z,1007.84
2017-10-10T06:35:00.680Z,1007.86
2017-10-10T06:36:12.602Z,1007.84
2017-10-10T06:37:25.113Z,1007.9
2017-10-10T06:38:37.685Z,1007.87
2017-10-10T06:39:50.263Z,1007.86
2017-10-10T06:41:02.837Z,1007.83
2017-10-10T06:42:14.779Z,1007.87
2017-10-10T06:43:26.395Z,1007.86
2017-10-10T06:44:38.645Z,1007.86
2017-10-10T06:45:50.891Z,1007.85
2017-10-10T06:47:03.499Z,1007.85
2017-10-10T06:48:15.774Z,1007.84
2017-10-10T06:49:27.704Z,1007.88
2017-10-10T06:50:40.275Z,1007.86
2017-10-10T06:51:52.223Z,1007.87
2017-10-10T06:53:04.789Z,1007.9
2017-10-10T06:54:17.365Z,1007.91
2017-10-10T06:55:29.606Z,1007.91
2017-10-10T06:56:41.551Z,1007.93
2017-10-10T06:57:54.123Z,1007.88
2017-10-10T06:59:06.069Z,1007.93
2017-10-10T07:00:18.381Z,1007.9
2017-10-10T07:01:30.959Z,1007.88
2017-10-10T07:02:43.206Z,1007.87
2017-10-10T07:03:55.479Z,1007.87
2017-10-10T07:05:07.412Z,1007.9
2017-10-10T07:06:19.041Z,1007.91
2017-10-10T07:07:30.987Z,1007.93
2017-10-10T07:08:42.912Z,1007.96
2017-10-10T07:09:55.478Z,1007.96
2017-10-10T07:11:07.104Z,1007.96
2017-10-10T07:12:19.349Z,1007.96
2017-10-10T07:13:31.916Z,1007.97
2017-10-10T07:14:44.189Z,1007.99
2017-10-10T07:15:56.758Z,1007.99
2017-10-10T07:17:09.328Z,1008.02
2017-10-10T07:18:21.898Z,1007.97
2017-10-10T07:19:34.469Z,1007.99
2017-10-10T07:20:47.090Z,1008
2017-10-10T07:21:59.336Z,1008.02
2017-10-10T07:23:11.280Z,1008.01
2017-10-10T07:24:23.209Z,1008.04
2017-10-10T07:25:35.451Z,1008.06
2017-10-10T07:26:47.711Z,1008.06
2017-10-10T07:27:59.315Z,1008.07
2017-10-10T07:29:11.601Z,1008.08
2017-10-10T07:30:23.530Z,1008.04
2017-10-10T07:31:36.101Z,1008.08
2017-10-10T07:32:48.371Z,1008.07
2017-10-10T07:34:00.624Z,1008.12
2017-10-10T07:35:12.566Z,1008.07
2017-10-10T07:36:25.134Z,1008.13
2017-10-10T07:37:37.081Z,1008.1
2017-10-10T07:38:49.025Z,1008.09
2017-10-10T07:40:01.272Z,1008.16
2017-10-10T07:41:13.841Z,1008.12
2017-10-10T07:42:26.107Z,1008.11
2017-10-10T07:43:38.365Z,1008.15
2017-10-10T07:44:50.627Z,1008.15
2017-10-10T07:46:02.873Z,1008.15
2017-10-10T07:47:14.820Z,1008.14
2017-10-10T07:48:27.090Z,1008.15
2017-10-10T07:49:39.660Z,1008.15
2017-10-10T07:50:52.247Z,1008.15
2017-10-10T07:52:04.827Z,1008.13
2017-10-10T07:53:17.051Z,1008.17
2017-10-10T07:54:29.625Z,1008.17
2017-10-10T07:55:41.891Z,1008.16
2017-10-10T07:56:54.139Z,1008.15
2017-10-10T07:58:06.732Z,1008.12
2017-10-10T07:59:18.975Z,1008.11
2017-10-10T08:00:31.221Z,1008.11
2017-10-10T08:01:43.792Z,1008.16
2017-10-10T08:02:56.361Z,1008.18
2017-10-10T08:04:08.308Z,1008.16
2017-10-10T08:05:20.254Z,1008.17
2017-10-10T08:06:32.499Z,1008.16
2017-10-10T08:07:44.440Z,1008.18
2017-10-10T08:08:57.015Z,1008.18
2017-10-10T08:10:09.587Z,1008.14
2017-10-10T08:11:22.182Z,1008.12
2017-10-10T08:12:34.428Z,1008.12
2017-10-10T08:13:46.676Z,1008.11
2017-10-10T08:14:58.919Z,1008.14
2017-10-10T08:16:11.517Z,1008.1
2017-10-10T08:17:24.085Z,1008.13
2017-10-10T08:18:36.659Z,1008.18
2017-10-10T08:19:49.226Z,1008.12
2017-10-10T08:21:01.472Z,1008.14
2017-10-10T08:22:13.744Z,1008.1
2017-10-10T08:23:25.989Z,1008.11
2017-10-10T08:24:38.233Z,1008.13
2017-10-10T08:25:50.810Z,1008.1
2017-10-10T08:27:02.417Z,1008.1
2017-10-10T08:28:14.671Z,1008.11
2017-10-10T08:29:25.959Z,1008.11
2017-10-10T08:30:38.213Z,1008.12
2017-10-10T08:31:50.789Z,1008.11
2017-10-10T08:33:03.353Z,1008.05
2017-10-10T08:34:15.924Z,1008.06
2017-10-10T08:35:28.499Z,1008.08
2017-10-10T08:36:40.742Z,1008.11
2017-10-10T08:37:53.338Z,1008.14
2017-10-10T08:39:05.907Z,1008.11
2017-10-10T08:40:18.154Z,1008.16
2017-10-10T08:41:30.091Z,1008.11
2017-10-10T08:42:42.670Z,1008.1
2017-10-10T08:43:54.271Z,1008.09
2017-10-10T08:45:06.877Z,1008.15
2017-10-10T08:46:19.462Z,1008.16
2017-10-10T08:47:31.069Z,1008.13
2017-10-10T08:48:43.323Z,1008.16
2017-10-10T08:49:55.288Z,1008.18
2017-10-10T08:51:07.864Z,1008.15
2017-10-10T08:52:20.118Z,1008.14
2017-10-10T08:53:32.379Z,1008.16
2017-10-10T08:54:44.625Z,1008.1
2017-10-10T08:55:57.197Z,1008.12
2017-10-10T08:57:09.767Z,1008.12
2017-10-10T08:58:22.617Z,1008.07
2017-10-10T08:59:34.864Z,1008.02
2017-10-10T09:00:47.452Z,1008.06
2017-10-10T09:01:59.378Z,1008.08
2017-10-10T09:03:11.946Z,1008.09
2017-10-10T09:04:24.516Z,1008.07
2017-10-10T09:05:37.092Z,1008.16
2017-10-10T09:06:49.658Z,1008.1
2017-10-10T09:08:02.208Z,1008.18
2017-10-10T09:09:14.774Z,1008.25
2017-10-10T09:10:27.346Z,1008.21
2017-10-10T09:11:39.916Z,1008.15
2017-10-10T09:12:52.163Z,1008.14
2017-10-10T09:14:04.733Z,1008.12
2017-10-10T09:15:16.653Z,1008.09
2017-10-10T09:16:28.576Z,1008.07
2017-10-10T09:17:41.149Z,1008.1
2017-10-10T09:18:53.387Z,1008.09
2017-10-10T09:20:05.634Z,1008.06
2017-10-10T09:21:17.906Z,1008.08
2017-10-10T09:22:30.155Z,1008.1
2017-10-10T09:23:42.738Z,1008.15
2017-10-10T09:24:54.685Z,1008.11
2017-10-10T09:26:07.289Z,1008.14
2017-10-10T09:27:19.533Z,1008.17
2017-10-10T09:28:31.471Z,1008.19
2017-10-10T09:29:43.092Z,1008.14
2017-10-10T09:30:55.345Z,1008.05
2017-10-10T09:32:07.284Z,1008.09
2017-10-10T09:33:19.854Z,1008.05
2017-10-10T09:34:32.109Z,1008.02
2017-10-10T09:35:44.678Z,1008.01
2017-10-10T09:36:56.950Z,1007.97
2017-10-10T09:38:09.198Z,1007.98
2017-10-10T09:39:21.468Z,1007.97
2017-10-10T09:40:33.410Z,1007.95
2017-10-10T09:41:45.657Z,1007.95
2017-10-10T09:42:58.230Z,1007.92
2017-10-10T09:44:10.473Z,1007.95
2017-10-10T09:45:23.060Z,1007.92
2017-10-10T09:46:35.616Z,1007.9
2017-10-10T09:47:48.185Z,1007.94
2017-10-10T09:49:00.130Z,1007.97
2017-10-10T09:50:12.701Z,1007.94
2017-10-10T09:51:25.270Z,1007.92
2017-10-10T09:52:37.516Z,1007.96
2017-10-10T09:53:49.437Z,1007.96
2017-10-10T09:55:01.688Z,1007.91
2017-10-10T09:56:14.257Z,1007.94
2017-10-10T09:57:26.824Z,1007.93
2017-10-10T09:58:39.076Z,1007.99
2017-10-10T09:59:51.315Z,1007.91
2017-10-10T10:01:03.262Z,1007.95
2017-10-10T10:02:15.510Z,1007.93
2017-10-10T10:03:28.096Z,1007.89
2017-10-10T10:04:40.352Z,1007.9
2017-10-10T10:05:52.970Z,1007.91
2017-10-10T10:07:05.217Z,1007.94
2017-10-10T10:08:17.786Z,1007.94
2017-10-10T10:09:29.723Z,1007.85
2017-10-10T10:10:41.979Z,1007.96
2017-10-10T10:11:54.227Z,1007.89
2017-10-10T10:13:06.793Z,1007.9
2017-10-10T10:14:19.064Z,1007.84
2017-10-10T10:15:31.326Z,1007.92
2017-10-10T10:16:43.883Z,1007.91
2017-10-10T10:17:55.822Z,1007.86
2017-10-10T10:19:08.399Z,1007.84
2017-10-10T10:20:20.971Z,1007.81
2017-10-10T10:21:32.904Z,1007.85
2017-10-10T10:22:45.163Z,1007.83
2017-10-10T10:23:57.731Z,1007.82
2017-10-10T10:25:09.977Z,1007.81
2017-10-10T10:26:22.239Z,1007.84
2017-10-10T10:27:34.491Z,1007.84
2017-10-10T10:28:46.743Z,1007.9
2017-10-10T10:29:58.658Z,1007.92
2017-10-10T10:31:11.232Z,1007.91
2017-10-10T10:32:23.823Z,1007.91
2017-10-10T10:33:36.394Z,1007.83
2017-10-10T10:34:48.965Z,1007.88
2017-10-10T10:36:01.536Z,1007.88
2017-10-10T10:37:14.106Z,1007.89
2017-10-10T10:38:26.701Z,1007.93
2017-10-10T10:39:39.314Z,1007.88
2017-10-10T10:40:51.242Z,1007.85
2017-10-10T10:42:03.183Z,1007.85
2017-10-10T10:43:15.111Z,1007.93
2017-10-10T10:44:27.056Z,1007.84
2017-10-10T10:45:39.313Z,1007.88
2017-10-10T10:46:51.571Z,1007.83
2017-10-10T10:48:03.821Z,1007.76
2017-10-10T10:49:16.064Z,1007.86
2017-10-10T10:50:28.008Z,1007.88
2017-10-10T10:51:40.260Z,1007.75
2017-10-10T10:52:52.825Z,1007.73
2017-10-10T10:54:05.423Z,1007.77
2017-10-10T10:55:17.989Z,1007.72
2017-10-10T10:56:30.240Z,1007.73
2017-10-10T10:57:42.805Z,1007.64
2017-10-10T10:58:55.054Z,1007.66
2017-10-10T11:00:07.622Z,1007.61
2017-10-10T11:01:20.197Z,1007.61
2017-10-10T11:02:32.131Z,1007.63
2017-10-10T11:03:44.712Z,1007.63
2017-10-10T11:04:57.281Z,1007.69
2017-10-10T11:06:09.219Z,1007.68
2017-10-10T11:07:21.473Z,1007.7
2017-10-10T11:08:33.394Z,1007.62
2017-10-10T11:09:45.992Z,1007.66
2017-10-10T11:10:58.237Z,1007.61
2017-10-10T11:12:10.497Z,1007.64
2017-10-10T11:13:23.079Z,1007.64
2017-10-10T11:14:34.996Z,1007.69
2017-10-10T11:15:47.592Z,1007.67
2017-10-10T11:17:00.153Z,1007.67
2017-10-10T11:18:12.132Z,1007.62
2017-10-10T11:19:24.330Z,1007.71
2017-10-10T11:20:36.267Z,1007.61
2017-10-10T11:21:48.822Z,1007.7
2017-10-10T11:23:01.090Z,1007.65
2017-10-10T11:24:13.365Z,1007.67
2017-10-10T11:25:25.609Z,1007.68
2017-10-10T11:26:37.869Z,1007.61
2017-10-10T11:27:50.122Z,1007.66
2017-10-10T11:29:02.696Z,1007.6
2017-10-10T11:30:15.295Z,1007.6
2017-10-10T11:31:27.235Z,1007.57
2017-10-10T11:32:39.831Z,1007.59
2017-10-10T11:33:52.081Z,1007.61
2017-10-10T11:35:04.650Z,1007.6
2017-10-10T11:36:16.891Z,1007.6
2017-10-10T11:37:28.843Z,1007.61
2017-10-10T11:38:40.776Z,1007.59
2017-10-10T11:39:53.032Z,1007.59
2017-10-10T11:41:05.293Z,1007.53
2017-10-10T11:42:17.546Z,1007.55
2017-10-10T11:43:29.808Z,1007.54
2017-10-10T11:44:41.754Z,1007.54
2017-10-10T11:45:53.684Z,1007.53
2017-10-10T11:47:05.978Z,1007.56
2017-10-10T11:48:18.552Z,1007.54
2017-10-10T11:49:30.817Z,1007.54
2017-10-10T11:50:42.765Z,1007.53
2017-10-10T11:51:55.341Z,1007.52
2017-10-10T11:53:07.905Z,1007.54
2017-10-10T11:54:20.170Z,1007.56
2017-10-10T11:55:32.422Z,1007.58
2017-10-10T11:56:45.021Z,1007.54
2017-10-10T11:57:57.590Z,1007.59
2017-10-10T11:59:09.515Z,1007.58
2017-10-10T12:00:22.083Z,1007.58
2017-10-10T12:01:34.005Z,1007.58
2017-10-10T12:02:46.571Z,1007.6
2017-10-10T12:03:58.818Z,1007.61
2017-10-10T12:05:11.093Z,1007.61
2017-10-10T12:06:23.015Z,1007.61
2017-10-10T12:07:34.624Z,1007.65
2017-10-10T12:08:47.205Z,1007.63
2017-10-10T12:09:59.449Z,1007.62
2017-10-10T12:11:11.369Z,1007.65
2017-10-10T12:12:23.313Z,1007.61
2017-10-10T12:13:35.562Z,1007.59
2017-10-10T12:14:47.495Z,1007.61
2017-10-10T12:16:00.090Z,1007.61
2017-10-10T12:17:12.347Z,1007.58
2017-10-10T12:18:23.988Z,1007.61
2017-10-10T12:19:36.256Z,1007.51
2017-10-10T12:20:48.531Z,1007.56
2017-10-10T12:22:00.469Z,1007.52
2017-10-10T12:23:13.048Z,1007.54
2017-10-10T12:24:24.670Z,1007.54
2017-10-10T12:25:36.917Z,1007.57
2017-10-10T12:26:49.502Z,1007.54
2017-10-10T12:28:01.756Z,1007.64
2017-10-10T12:29:14.027Z,1007.57
2017-10-10T12:30:26.298Z,1007.6
2017-10-10T12:31:37.918Z,1007.59
2017-10-10T12:32:50.170Z,1007.61
2017-10-10T12:34:02.426Z,1007.58
2017-10-10T12:35:14.361Z,1007.6
2017-10-10T12:36:26.300Z,1007.55
2017-10-10T12:37:38.870Z,1007.55
2017-10-10T12:38:51.119Z,1007.58
2017-10-10T12:40:03.362Z,1007.57
2017-10-10T12:41:14.984Z,1007.56
2017-10-10T12:42:27.582Z,1007.49
2017-10-10T12:43:40.150Z,1007.5
2017-10-10T12:44:52.728Z,1007.47
2017-10-10T12:46:04.992Z,1007.48
2017-10-10T12:47:17.242Z,1007.49
2017-10-10T12:48:29.489Z,1007.5
2017-10-10T12:49:41.746Z,1007.47
2017-10-10T12:50:54.016Z,1007.48
2017-10-10T12:52:05.994Z,1007.54
2017-10-10T12:53:18.570Z,1007.51
2017-10-10T12:54:30.835Z,1007.52
2017-10-10T12:55:42.785Z,1007.48
2017-10-10T12:56:55.351Z,1007.54
2017-10-10T12:58:07.297Z,1007.54
2017-10-10T12:59:19.548Z,1007.54
2017-10-10T13:00:31.489Z,1007.49
2017-10-10T13:01:43.110Z,1007.49
2017-10-10T13:02:55.358Z,1007.5
2017-10-10T13:04:07.625Z,1007.5
2017-10-10T13:05:19.877Z,1007.52
2017-10-10T13:06:32.141Z,1007.48
2017-10-10T13:07:44.412Z,1007.49
2017-10-10T13:08:56.674Z,1007.49
2017-10-10T13:10:08.951Z,1007.47
2017-10-10T13:11:21.528Z,1007.42
2017-10-10T13:12:33.795Z,1007.38
2017-10-10T13:13:46.042Z,1007.4
2017-10-10T13:14:58.610Z,1007.42
2017-10-10T13:16:11.182Z,1007.47
2017-10-10T13:17:23.432Z,1007.35
2017-10-10T13:18:36.254Z,1007.41
2017-10-10T13:19:48.823Z,1007.42
2017-10-10T13:21:01.082Z,1007.36
2017-10-10T13:22:13.637Z,1007.35
2017-10-10T13:23:26.230Z,1007.31
2017-10-10T13:24:38.501Z,1007.34
2017-10-10T13:25:50.446Z,1007.29
2017-10-10T13:27:02.695Z,1007.32
2017-10-10T13:28:14.941Z,1007.36
2017-10-10T13:29:26.877Z,1007.35
2017-10-10T13:30:39.498Z,1007.36
2017-10-10T13:31:51.443Z,1007.34
2017-10-10T13:33:04.039Z,1007.33
2017-10-10T13:34:15.967Z,1007.35
2017-10-10T13:35:28.214Z,1007.33
2017-10-10T13:36:39.835Z,1007.37
2017-10-10T13:37:52.407Z,1007.36
2017-10-10T13:39:04.973Z,1007.36
2017-10-10T13:40:17.243Z,1007.36
2017-10-10T13:41:29.495Z,1007.33
2017-10-10T13:42:42.071Z,1007.38
2017-10-10T13:43:54.307Z,1007.39
2017-10-10T13:45:06.882Z,1007.42
2017-10-10T13:46:19.448Z,1007.37
2017-10-10T13:47:31.711Z,1007.44
2017-10-10T13:48:44.282Z,1007.37
2017-10-10T13:49:56.540Z,1007.39
2017-10-10T13:51:09.158Z,1007.39
2017-10-10T13:52:21.729Z,1007.37
2017-10-10T13:53:33.647Z,1007.42
2017-10-10T13:54:45.893Z,1007.47
2017-10-10T13:55:58.155Z,1007.46
2017-10-10T13:57:10.726Z,1007.42
2017-10-10T13:58:22.996Z,1007.42
2017-10-10T13:59:35.553Z,1007.44
2017-10-10T14:00:47.470Z,1007.44
2017-10-10T14:02:00.074Z,1007.41
2017-10-10T14:03:12.654Z,1007.41
2017-10-10T14:04:25.233Z,1007.44
2017-10-10T14:05:37.483Z,1007.4
2017-10-10T14:06:49.728Z,1007.38
2017-10-10T14:08:01.971Z,1007.39
2017-10-10T14:09:14.232Z,1007.44
2017-10-10T14:10:26.823Z,1007.39
2017-10-10T14:11:39.057Z,1007.47
2017-10-10T14:12:51.303Z,1007.47
2017-10-10T14:14:03.548Z,1007.46
2017-10-10T14:15:16.120Z,1007.48
2017-10-10T14:16:28.717Z,1007.46
2017-10-10T14:17:41.285Z,1007.46
2017-10-10T14:18:53.533Z,1007.45
2017-10-10T14:20:05.807Z,1007.48
2017-10-10T14:21:18.371Z,1007.48
2017-10-10T14:22:30.946Z,1007.48
2017-10-10T14:23:42.889Z,1007.46
2017-10-10T14:24:55.476Z,1007.46
2017-10-10T14:26:08.058Z,1007.49
2017-10-10T14:27:20.317Z,1007.47
2017-10-10T14:28:32.896Z,1007.47
2017-10-10T14:29:45.142Z,1007.48
2017-10-10T14:30:57.712Z,1007.45
2017-10-10T14:32:09.642Z,1007.5
2017-10-10T14:33:21.600Z,1007.44
2017-10-10T14:34:33.554Z,1007.5
2017-10-10T14:35:45.176Z,1007.42
2017-10-10T14:36:57.770Z,1007.48
2017-10-10T14:38:10.412Z,1007.5